Crandalls Lodge, Iowa
Current Conditions -  °F | °C
As of 12:33 PM on Wednesday 26 Nov 2014 (Local Time) from KMJQ Reporting Station
Haze Haze  
Wind Chill: 11°   Ceiling: 1100
Heat Index: 25°   Visibility: 4mi
Dew Point: 21°   Wind: 18mph
Humidity: 86%   Direction: 350°N
Pressure: 30.12"   Gusts: 26mph
Location:  43.4265°N, 95.1547°W
Report Text: KMJQ 261833Z AUTO 35016G23KT 4SM BR OVC011 M04/M06 A3012 RMK AO2
Loading
Personal Weather Stations






























Interactive Weather Map New forecast layout! Learn more

10-Day Weather Forecast

Advertisements
Track Severe Weather on mobile